Time;durP1;ratioP1;P1;durP2;ratioP2;P2;SDS_P1;SDS_P2;PMS_P1;PMS_P2;Temp;Humidity;BMP_temperature;BMP_pressure;BME280_temperature;BME280_humidity;BME280_pressure;Samples;Min_cycle;Max_cycle;Signal;HPM_P1;HPM_P2
2020/12/13 01:36:43;;;;;;;1.90;0.10;;;6.40;85.40;;;;;;4106238;35;20335;-90
2020/12/13 01:39:22;;;;;;;0.30;0.30;;;6.40;85.50;;;;;;4128760;27;20128;-90
2020/12/13 01:41:51;;;;;;;2.20;0.60;;;6.40;86.20;;;;;;4091908;27;20462;-90
2020/12/13 01:44:34;;;;;;;0.73;0.40;;;6.40;85.50;;;;;;4128035;27;20071;-89
2020/12/13 01:47:28;;;;;;;0.70;0.23;;;6.40;85.60;;;;;;4119312;27;20067;-90
2020/12/13 01:49:58;;;;;;;0.00;0.00;;;6.40;85.60;;;;;;4155904;27;20060;-89
2020/12/13 01:53:27;;;;;;;;;;;;;;;;;;;;;
2020/12/13 01:56:00;;;;;;;0.50;0.20;;;6.50;85.70;;;;;;4145858;27;20068;-91
2020/12/13 01:58:46;;;;;;;0.80;0.40;;;6.50;85.60;;;;;;4143059;27;20071;-90
2020/12/13 02:01:33;;;;;;;;;;;;;;;;;;;;;
2020/12/13 02:04:19;;;;;;;0.70;0.07;;;6.50;85.50;;;;;;4096609;27;20052;-92
2020/12/13 02:06:59;;;;;;;;;;;;;;;;;;;;;
2020/12/13 02:09:31;;;;;;;0.57;0.28;;;6.60;85.50;;;;;;4094161;35;20067;-91
2020/12/13 02:12:31;;;;;;;20.50;0.63;;;6.60;85.40;;;;;;4109484;27;20056;-90
2020/12/13 02:15:13;;;;;;;;;;;;;;;;;;;;;
2020/12/13 02:17:43;;;;;;;0.57;0.33;;;6.70;85.40;;;;;;4111398;27;20063;-89
2020/12/13 02:20:30;;;;;;;;;;;;;;;;;;;;;
2020/12/13 02:23:02;;;;;;;0.97;0.30;;;6.70;85.20;;;;;;4091386;35;20074;-89
2020/12/13 02:25:39;;;;;;;1.10;0.38;;;6.80;85.10;;;;;;4103409;27;20079;-91
2020/12/13 02:28:36;;;;;;;0.57;0.20;;;6.80;85.00;;;;;;4117308;27;20075;-90
2020/12/13 02:31:46;;;;;;;5.40;0.20;;;6.80;84.90;;;;;;4110687;28;20071;-91
2020/12/13 02:34:24;;;;;;;0.47;0.20;;;6.90;84.90;;;;;;4101691;27;20084;-89
2020/12/13 02:37:03;;;;;;;;;;;;;;;;;;;;;
2020/12/13 02:39:59;;;;;;;1.60;0.30;;;6.90;84.80;;;;;;4161388;27;20044;-91
2020/12/13 02:42:34;;;;;;;0.03;0.00;;;7.00;84.80;;;;;;4086759;35;20072;-89
2020/12/13 02:48:39;;;;;;;0.40;0.20;;;7.00;84.80;;;;;;4080541;28;20075;-92
2020/12/13 02:51:24;;;;;;;0.40;0.10;;;7.10;84.70;;;;;;4075755;35;20057;-91
2020/12/13 02:54:01;;;;;;;0.10;0.00;;;7.10;84.70;;;;;;4075647;35;20076;-91
2020/12/13 02:56:50;;;;;;;0.43;0.20;;;7.10;84.70;;;;;;4172598;27;20056;-90
2020/12/13 02:59:30;;;;;;;0.10;0.00;;;7.10;84.60;;;;;;4108011;27;20071;-87
2020/12/13 03:05:06;;;;;;;0.00;0.00;;;7.10;84.70;;;;;;4053323;35;20350;-90
2020/12/13 03:07:32;;;;;;;0.10;0.00;;;7.20;84.80;;;;;;4050436;35;20069;-89
2020/12/13 03:09:59;;;;;;;0.33;0.13;;;7.20;84.80;;;;;;4071522;27;20091;-89
2020/12/13 03:12:25;;;;;;;0.00;0.00;;;7.20;84.80;;;;;;4050173;35;20598;-91
2020/12/13 03:14:55;;;;;;;3.13;0.53;;;7.20;84.70;;;;;;4061133;28;20069;-90
2020/12/13 03:17:22;;;;;;;0.63;0.10;;;7.20;84.70;;;;;;4095640;27;20078;-89
2020/12/13 03:19:48;;;;;;;0.63;0.10;;;7.30;84.70;;;;;;4170510;27;20052;-89
2020/12/13 03:22:14;;;;;;;0.20;0.10;;;7.30;84.70;;;;;;4189991;27;20060;-89
2020/12/13 03:24:41;;;;;;;0.00;0.00;;;7.30;84.70;;;;;;4092915;35;20059;-91
2020/12/13 03:27:08;;;;;;;0.00;0.00;;;7.30;84.70;;;;;;4091962;35;20111;-90
2020/12/13 03:29:34;;;;;;;3.83;0.32;;;7.40;84.70;;;;;;4192016;27;20044;-90
2020/12/13 03:32:00;;;;;;;0.70;0.10;;;7.40;84.70;;;;;;4092040;28;20082;-89
2020/12/13 03:34:27;;;;;;;0.10;0.00;;;7.40;84.70;;;;;;4090236;35;20083;-89
2020/12/13 03:36:53;;;;;;;0.05;0.00;;;7.50;84.70;;;;;;4116054;27;20056;-89
2020/12/13 03:39:19;;;;;;;0.00;0.00;;;7.50;84.70;;;;;;4125498;27;20063;-90
2020/12/13 03:41:46;;;;;;;0.13;0.03;;;7.50;84.60;;;;;;4135216;27;20032;-88
2020/12/13 03:44:13;;;;;;;0.10;0.05;;;7.50;84.60;;;;;;4077999;35;20055;-89
2020/12/13 03:46:50;;;;;;;;;;;;;;;;;;;;;
2020/12/13 03:49:17;;;;;;;0.25;0.10;;;7.50;84.80;;;;;;4090639;35;20511;-90
2020/12/13 03:51:43;;;;;;;0.00;0.00;;;7.50;84.80;;;;;;4092058;35;20051;-90
2020/12/13 03:54:10;;;;;;;0.00;0.00;;;7.50;84.80;;;;;;4102713;27;20044;-88
2020/12/13 03:56:36;;;;;;;0.63;0.57;;;7.50;84.80;;;;;;4092480;35;20052;-89
2020/12/13 03:59:02;;;;;;;0.10;0.03;;;7.60;84.80;;;;;;4087223;27;20072;-88
2020/12/13 04:01:29;;;;;;;0.00;0.00;;;7.60;84.80;;;;;;4163852;27;20040;-90
2020/12/13 04:03:58;;;;;;;0.28;0.00;;;7.60;84.80;;;;;;4091439;27;20040;-89
2020/12/13 04:06:25;;;;;;;0.00;0.00;;;7.70;84.90;;;;;;4091136;35;20075;-90
2020/12/13 04:08:51;;;;;;;0.32;0.10;;;7.60;84.90;;;;;;4120426;27;20071;-90
2020/12/13 04:11:18;;;;;;;0.00;0.00;;;7.70;84.90;;;;;;4091390;35;20055;-91
2020/12/13 04:13:44;;;;;;;0.20;0.00;;;7.70;84.90;;;;;;4145146;27;20052;-90
2020/12/13 04:16:14;;;;;;;0.95;0.20;;;7.60;84.90;;;;;;4091859;35;20250;-90
2020/12/13 04:18:40;;;;;;;1.45;0.25;;;7.70;85.00;;;;;;4169455;27;20060;-91
2020/12/13 04:21:06;;;;;;;0.25;0.00;;;7.70;85.00;;;;;;4092647;35;20055;-91
2020/12/13 04:23:33;;;;;;;0.22;0.05;;;7.70;85.00;;;;;;4092467;35;20447;-91
2020/12/13 04:26:02;;;;;;;2.78;0.20;;;7.70;85.00;;;;;;4092896;35;20048;-92
2020/12/13 04:28:28;;;;;;;0.00;0.00;;;7.70;85.10;;;;;;4092602;35;20099;-90
2020/12/13 04:31:02;;;;;;;0.55;0.35;;;7.70;85.10;;;;;;4148763;27;20056;-89
2020/12/13 04:33:36;;;;;;;0.10;0.00;;;7.70;85.00;;;;;;4100266;27;20055;-89
2020/12/13 04:36:08;;;;;;;0.38;0.20;;;7.70;85.10;;;;;;4104068;34;20075;-91
2020/12/13 04:39:00;;;;;;;0.10;0.10;;;7.70;85.10;;;;;;4103838;34;20080;-90
2020/12/13 04:41:30;;;;;;;0.22;0.17;;;7.80;85.10;;;;;;4094872;34;20079;-89
2020/12/13 04:43:56;;;;;;;0.00;0.00;;;7.70;85.10;;;;;;4157246;27;20367;-90
2020/12/13 04:46:29;;;;;;;2.17;0.15;;;7.70;85.10;;;;;;4078838;28;20155;-89
2020/12/13 04:48:56;;;;;;;0.00;0.00;;;7.80;85.20;;;;;;4092368;35;20072;-89
2020/12/13 04:51:26;;;;;;;0.00;0.00;;;7.80;85.20;;;;;;4118048;27;20059;-89
2020/12/13 04:54:04;;;;;;;0.00;0.00;;;7.80;85.20;;;;;;4165475;27;20067;-89
2020/12/13 04:56:32;;;;;;;0.00;0.00;;;7.80;85.20;;;;;;4080560;35;20071;-89
2020/12/13 04:59:01;;;;;;;0.00;0.00;;;7.80;85.20;;;;;;4134373;27;20423;-91
2020/12/13 05:01:28;;;;;;;2.13;0.30;;;7.80;85.10;;;;;;4102636;27;20063;-89
2020/12/13 05:03:54;;;;;;;0.00;0.00;;;7.80;85.10;;;;;;4100345;27;20060;-88
2020/12/13 05:06:22;;;;;;;0.00;0.00;;;7.90;85.10;;;;;;4090520;35;20067;-89
2020/12/13 05:08:48;;;;;;;0.20;0.15;;;7.90;85.10;;;;;;4130487;27;20107;-90
2020/12/13 05:11:15;;;;;;;0.57;0.35;;;7.90;85.10;;;;;;4091267;35;20056;-90
2020/12/13 05:13:41;;;;;;;0.20;0.10;;;7.90;85.20;;;;;;4090323;35;20075;-88
2020/12/13 05:16:08;;;;;;;0.00;0.00;;;7.80;85.10;;;;;;4113214;27;20585;-89
2020/12/13 05:18:41;;;;;;;5.85;0.47;;;7.90;85.20;;;;;;4089867;35;20154;-90
2020/12/13 05:21:08;;;;;;;0.00;0.00;;;7.90;85.10;;;;;;4107838;27;20064;-90
2020/12/13 05:23:34;;;;;;;0.90;0.13;;;7.90;85.10;;;;;;4095483;27;20063;-91
2020/12/13 05:26:00;;;;;;;2.03;0.22;;;7.90;85.10;;;;;;4090718;35;20063;-90
2020/12/13 05:28:27;;;;;;;0.00;0.00;;;8.00;85.10;;;;;;4148240;27;20044;-89
2020/12/13 05:30:54;;;;;;;0.32;0.10;;;8.00;85.00;;;;;;4104200;35;20048;-90
2020/12/13 05:33:27;;;;;;;0.00;0.00;;;8.00;85.00;;;;;;4114830;27;20052;-90
2020/12/13 05:36:07;;;;;;;0.00;0.00;;;8.00;85.00;;;;;;4091286;34;20040;-89
2020/12/13 05:38:37;;;;;;;0.00;0.00;;;8.10;85.00;;;;;;4145257;27;20056;-89
2020/12/13 05:41:09;;;;;;;0.47;0.32;;;8.10;85.00;;;;;;4090550;34;20064;-89
2020/12/13 05:43:40;;;;;;;;;;;8.10;84.90;;;;;;4077489;34;20040;-89
2020/12/13 05:46:38;;;;;;;7.68;0.20;;;8.10;84.90;;;;;;4083935;35;20360;-90
2020/12/13 05:51:39;;;;;;;0.10;0.05;;;8.10;84.90;;;;;;4094210;34;20099;-89
2020/12/13 05:54:10;;;;;;;0.25;0.03;;;8.10;84.90;;;;;;4087605;34;20051;-89
2020/12/13 05:56:36;;;;;;;0.00;0.00;;;8.10;84.90;;;;;;4090239;34;20051;-89
2020/12/13 05:59:33;;;;;;;0.00;0.00;;;8.10;84.80;;;;;;4094347;34;20090;-89
2020/12/13 06:05:32;;;;;;;0.10;0.00;;;8.10;85.70;;;;;;4093401;27;20051;-88
2020/12/13 08:39:34;;;;;;;0.00;0.00;;;8.20;86.60;;;;;;4083523;27;20048;31
2020/12/13 08:52:33;;;;;;;0.00;0.00;;;8.30;86.40;;;;;;4110558;27;20054;-88
2020/12/13 08:55:08;;;;;;;0.20;0.20;;;8.40;86.40;;;;;;4125828;27;20099;-89
2020/12/13 09:24:06;;;;;;;0.00;0.00;;;8.80;86.00;;;;;;4119199;27;21634;31
2020/12/13 09:27:12;;;;;;;0.00;0.00;;;8.90;85.60;;;;;;4144086;34;20058;-89
2020/12/13 10:11:52;;;;;;;0.38;0.08;;;9.40;85.50;;;;;;4135461;27;20070;-87
2020/12/13 10:14:20;;;;;;;0.40;0.20;;;9.40;85.50;;;;;;4119411;34;20499;-87
2020/12/13 10:28:34;;;;;;;0.00;0.00;;;9.60;85.30;;;;;;4147581;27;20094;-88
2020/12/13 10:31:19;;;;;;;0.22;0.00;;;9.60;85.20;;;;;;4160236;27;20089;-89
2020/12/13 10:33:45;;;;;;;0.17;0.10;;;9.70;85.30;;;;;;4132642;34;20054;-89
2020/12/13 10:36:13;;;;;;;8.10;0.10;;;9.70;85.30;;;;;;4110739;27;20552;-89
2020/12/13 10:38:40;;;;;;;0.00;0.00;;;9.70;85.30;;;;;;4149912;27;20089;-90
2020/12/13 10:41:09;;;;;;;0.00;0.00;;;9.70;85.30;;;;;;4120897;27;20039;-90
2020/12/13 10:43:43;;;;;;;0.00;0.00;;;9.80;85.40;;;;;;4125368;27;20065;-89
2020/12/13 10:47:00;;;;;;;0.05;0.00;;;9.80;85.40;;;;;;4116590;27;20378;-89
2020/12/13 10:50:02;;;;;;;0.00;0.00;;;9.80;85.30;;;;;;4163048;27;20067;-89
2020/12/13 10:52:43;;;;;;;0.00;0.00;;;9.80;85.30;;;;;;4110947;34;20073;-89
2020/12/13 10:55:09;;;;;;;0.30;0.20;;;9.90;85.30;;;;;;4147379;27;20070;-90
2020/12/13 10:57:35;;;;;;;0.13;0.00;;;9.90;85.30;;;;;;4156484;27;20058;-87
2020/12/13 11:00:17;;;;;;;0.00;0.00;;;9.90;85.30;;;;;;4104285;27;20498;-90
2020/12/13 11:02:44;;;;;;;0.00;0.00;;;10.00;85.30;;;;;;4118992;28;20086;-87
2020/12/13 11:05:10;;;;;;;0.10;0.00;;;10.00;85.20;;;;;;4147943;27;20063;-89
2020/12/13 11:07:40;;;;;;;0.00;0.00;;;10.10;85.20;;;;;;4127158;34;20082;-88
2020/12/13 11:10:28;;;;;;;;;;;;;;;;;;;;;
2020/12/13 11:13:00;;;;;;;0.13;0.05;;;10.20;85.10;;;;;;4103806;34;20039;-89
2020/12/13 11:15:37;;;;;;;;;;;;;;;;;;;;;
2020/12/13 11:18:03;;;;;;;0.00;0.00;;;10.30;85.00;;;;;;4130960;27;20071;-89
2020/12/13 11:20:38;;;;;;;0.00;0.00;;;10.30;84.90;;;;;;4107824;27;20533;-91
2020/12/13 11:23:09;;;;;;;9.07;0.40;;;10.40;84.90;;;;;;4154661;27;20039;-88
2020/12/13 11:30:40;;;;;;;0.00;0.00;;;10.40;84.90;;;;;;4129909;27;20563;-89
2020/12/13 11:33:11;;;;;;;0.38;0.05;;;10.40;84.90;;;;;;4135267;27;20081;-89
2020/12/13 11:35:38;;;;;;;;;;;10.50;85.00;;;;;;4135614;27;20074;-89
2020/12/13 11:38:04;;;;;;;1.75;0.20;;;10.50;84.90;;;;;;4117225;27;19951;-88
2020/12/13 11:40:30;;;;;;;0.38;0.00;;;10.50;84.90;;;;;;4122952;27;20059;-88
2020/12/13 11:42:59;;;;;;;0.00;0.00;;;10.60;84.90;;;;;;4137044;27;20044;-89
2020/12/13 11:45:26;;;;;;;0.10;0.00;;;10.60;84.90;;;;;;4138917;27;20331;-89
2020/12/13 11:47:55;;;;;;;0.15;0.10;;;10.70;84.80;;;;;;4120759;27;20066;-89
2020/12/13 11:50:29;;;;;;;0.93;0.00;;;10.70;84.70;;;;;;4117963;27;20051;-87
2020/12/13 11:52:55;;;;;;;0.00;0.00;;;10.80;84.70;;;;;;4115837;34;20051;-88
2020/12/13 11:55:54;;;;;;;;;;;;;;;;;;;;;
2020/12/13 11:58:52;;;;;;;0.22;0.10;;;10.90;84.60;;;;;;4177019;27;20047;-87
2020/12/13 12:01:19;;;;;;;0.00;0.00;;;10.90;84.50;;;;;;4133903;27;20449;-88
2020/12/13 12:14:12;;;;;;;0.00;0.00;;;11.00;84.90;;;;;;4117876;27;20070;-88
2020/12/13 12:16:40;;;;;;;0.10;0.03;;;11.00;85.00;;;;;;4150682;27;20508;-89
2020/12/13 12:19:06;;;;;;;0.08;0.08;;;11.00;85.00;;;;;;4129185;34;20074;-88
2020/12/13 12:21:34;;;;;;;0.20;0.10;;;11.00;85.00;;;;;;4130454;27;20070;-89
2020/12/13 12:24:30;;;;;;;4.20;0.35;;;11.00;85.00;;;;;;4109492;27;20082;-90
2020/12/13 12:30:29;;;;;;;0.13;0.00;;;11.00;85.20;;;;;;4116006;27;20075;-89
2020/12/13 12:32:59;;;;;;;4.03;0.10;;;11.00;85.20;;;;;;4099489;27;20090;-91
2020/12/13 12:35:37;;;;;;;1.02;0.38;;;11.00;85.20;;;;;;4119830;27;20065;-90
2020/12/13 12:38:16;;;;;;;0.30;0.10;;;11.00;85.30;;;;;;4121102;27;20436;-88
2020/12/13 12:41:18;;;;;;;;;;;;;;;;;;;;;
2020/12/13 12:44:14;;;;;;;0.10;0.00;;;11.00;85.40;;;;;;4109817;27;20091;-89
2020/12/13 12:50:53;;;;;;;;;;;;;;;;;;;;;
2020/12/13 12:53:23;;;;;;;1.70;0.57;;;11.10;85.40;;;;;;4082399;28;20095;-90
2020/12/13 12:56:30;;;;;;;0.82;0.40;;;11.10;85.30;;;;;;4069118;27;20484;-89
2020/12/13 13:02:17;;;;;;;0.05;0.00;;;11.20;85.30;;;;;;4051735;28;20071;-90
2020/12/13 13:04:56;;;;;;;1.17;0.20;;;11.20;85.30;;;;;;4070324;27;20041;-90
2020/12/13 13:07:25;;;;;;;0.85;0.40;;;11.20;85.30;;;;;;4087921;34;20031;-89
2020/12/13 13:10:02;;;;;;;0.00;0.00;;;11.20;85.30;;;;;;4113549;34;20035;-90
2020/12/13 13:12:31;;;;;;;0.00;0.00;;;11.30;85.30;;;;;;4116303;34;20083;-91
2020/12/13 13:19:53;;;;;;;;;;;;;;;;;;;;;
2020/12/13 13:23:08;;;;;;;;;;;;;;;;;;;;;
2020/12/13 13:30:11;;;;;;;;;;;;;;;;;;;;;
2020/12/13 13:33:02;;;;;;;;;;;;;;;;;;;;;
2020/12/13 13:35:32;;;;;;;0.08;0.00;;;11.50;85.30;;;;;;4000793;35;20081;-89
2020/12/13 13:38:07;;;;;;;0.20;0.00;;;11.40;85.30;;;;;;4046952;28;20408;-88
2020/12/13 13:40:35;;;;;;;0.47;0.05;;;11.40;85.40;;;;;;4064657;35;20052;-91
2020/12/13 13:43:07;;;;;;;0.13;0.00;;;11.40;85.50;;;;;;4097139;35;20082;-88
2020/12/13 13:54:51;;;;;;;;;;;;;;;;;;;;;
2020/12/13 14:14:32;;;;;;;0.10;0.00;;;11.50;86.10;;;;;;4029471;28;20085;-89
2020/12/13 14:16:59;;;;;;;0.00;0.00;;;11.40;86.00;;;;;;4046841;28;20080;-89
2020/12/13 14:19:39;;;;;;;0.10;0.10;;;11.50;86.00;;;;;;4083956;35;20094;-88
2020/12/13 14:22:05;;;;;;;0.00;0.00;;;11.40;86.00;;;;;;4117475;27;20081;-89
2020/12/13 14:24:39;;;;;;;0.00;0.00;;;11.50;86.00;;;;;;4115834;34;20392;-90
2020/12/13 14:30:29;;;;;;;0.00;0.00;;;11.60;86.00;;;;;;4122205;27;20094;-90
2020/12/13 14:33:19;;;;;;;0.00;0.00;;;11.60;86.00;;;;;;4119591;34;20066;-88
2020/12/13 14:35:47;;;;;;;0.10;0.00;;;11.70;86.00;;;;;;4139491;27;20046;-89
2020/12/13 14:38:17;;;;;;;0.00;0.00;;;11.70;85.90;;;;;;4141727;27;20063;-89
2020/12/13 14:40:44;;;;;;;0.00;0.00;;;11.70;86.80;;;;;;4138428;34;20067;-89
2020/12/13 14:43:10;;;;;;;0.00;0.00;;;11.70;86.00;;;;;;4139894;34;20417;-90
2020/12/13 14:45:36;;;;;;;0.00;0.00;;;11.70;86.00;;;;;;4145691;27;20074;-89
2020/12/13 14:48:08;;;;;;;0.00;0.00;;;11.70;86.10;;;;;;4128378;27;20369;-88
2020/12/13 14:50:34;;;;;;;;;;;11.70;86.10;;;;;;4136394;34;20057;-88
2020/12/13 14:53:07;;;;;;;0.00;0.00;;;11.70;86.10;;;;;;4135706;34;19983;-88
2020/12/13 14:55:36;;;;;;;0.90;0.10;;;11.70;86.10;;;;;;4138314;27;20051;-87
2020/12/13 15:05:02;;;;;;;0.08;0.08;;;11.80;86.10;;;;;;4136243;27;20090;-89
2020/12/13 15:07:29;;;;;;;0.08;0.00;;;11.80;86.10;;;;;;4124282;27;20050;-89
2020/12/13 15:13:59;;;;;;;0.00;0.00;;;11.80;86.30;;;;;;4124822;34;20070;-91
2020/12/13 15:17:11;;;;;;;0.03;0.00;;;11.70;86.30;;;;;;4139197;27;20079;-90
2020/12/13 15:19:48;;;;;;;0.40;0.10;;;11.70;86.40;;;;;;4091485;35;20087;-89
2020/12/13 15:22:14;;;;;;;0.52;0.22;;;11.80;86.50;;;;;;4073249;35;20435;-88
2020/12/13 15:24:41;;;;;;;0.00;0.00;;;11.80;86.50;;;;;;4096049;27;20086;-89
2020/12/13 15:27:08;;;;;;;0.20;0.10;;;11.70;86.50;;;;;;4100429;27;20135;-88
2020/12/13 15:29:34;;;;;;;0.00;0.00;;;11.70;86.50;;;;;;4110524;27;20410;-88
2020/12/13 15:32:49;;;;;;;0.00;0.00;;;11.70;86.50;;;;;;4112998;27;20535;-90
2020/12/13 15:35:16;;;;;;;1.67;0.30;;;11.80;86.60;;;;;;4129929;34;20083;-91
2020/12/13 15:37:43;;;;;;;0.30;0.13;;;11.80;86.60;;;;;;4117663;27;20113;-90
2020/12/13 15:40:14;;;;;;;0.77;0.10;;;11.80;86.60;;;;;;4117481;34;20032;-90
2020/12/13 15:42:42;;;;;;;0.28;0.10;;;11.80;86.60;;;;;;4108891;27;20082;-89
2020/12/13 15:45:09;;;;;;;0.22;0.03;;;11.80;86.60;;;;;;4100269;27;20086;-87
2020/12/13 15:47:36;;;;;;;0.22;0.10;;;11.80;86.60;;;;;;4112404;27;20054;-88
2020/12/13 15:50:03;;;;;;;1.42;0.30;;;11.80;86.70;;;;;;4110141;34;20039;-89
2020/12/13 15:52:30;;;;;;;0.35;0.15;;;11.80;86.80;;;;;;4123443;27;20462;-89
2020/12/13 15:54:56;;;;;;;0.25;0.03;;;11.80;86.80;;;;;;4116558;34;20050;-87
2020/12/13 15:57:22;;;;;;;0.32;0.15;;;11.80;86.80;;;;;;4132619;27;20102;-88
2020/12/13 15:59:49;;;;;;;0.32;0.13;;;11.90;86.90;;;;;;4122646;34;20080;-88
2020/12/13 17:02:29;;;;;;;0.68;0.30;;;12.20;86.90;;;;;;4062502;35;20049;-89
2020/12/13 17:08:03;;;;;;;1.75;0.55;;;12.20;86.90;;;;;;4048786;27;20072;-89
2020/12/13 17:11:07;;;;;;;0.00;0.00;;;12.20;87.00;;;;;;4044533;35;20100;-89
2020/12/13 17:17:35;;;;;;;;;;;;;;;;;;;;;
2020/12/13 17:23:27;;;;;;;0.52;0.20;;;12.20;87.10;;;;;;4119142;34;20078;-88
2020/12/13 17:26:59;;;;;;;0.25;0.13;;;12.20;87.10;;;;;;4131712;27;20382;-88
2020/12/13 17:29:48;;;;;;;0.00;0.00;;;12.20;87.10;;;;;;4091963;35;20172;-89
2020/12/13 17:33:45;;;;;;;0.10;0.00;;;12.20;87.10;;;;;;4070837;28;20056;-89
2020/12/13 17:36:11;;;;;;;0.00;0.00;;;12.20;87.10;;;;;;4047932;35;20083;-90
2020/12/13 17:38:52;;;;;;;0.08;0.00;;;12.30;87.30;;;;;;4057143;27;20119;-89
2020/12/13 17:41:50;;;;;;;0.00;0.00;;;12.30;87.30;;;;;;4112754;27;20082;-89
2020/12/13 17:45:00;;;;;;;0.00;0.00;;;12.30;87.30;;;;;;4126210;34;20074;-90
2020/12/13 17:47:43;;;;;;;0.40;0.03;;;12.30;87.20;;;;;;4140795;27;20077;-88
